Time;durP1;ratioP1;P1;durP2;ratioP2;P2;SDS_P1;SDS_P2;PMS_P1;PMS_P2;Temp;Humidity;BMP_temperature;BMP_pressure;BME280_temperature;BME280_humidity;BME280_pressure;Samples;Min_cycle;Max_cycle;Signal;HPM_P1;HPM_P2
2021/07/15 00:00:32;;;;;;;2.87;2.60;;;;;;;;;;5057290;28;20208;-83
2021/07/15 00:02:59;;;;;;;2.83;2.57;;;;;;;;;;5056853;28;20180;-82
2021/07/15 00:05:27;;;;;;;3.07;2.77;;;;;;;;;;5057146;28;20184;-82
2021/07/15 00:07:53;;;;;;;3.50;2.57;;;;;;;;;;5056314;28;20193;-82
2021/07/15 00:10:22;;;;;;;2.97;2.70;;;;;;;;;;5057038;28;20188;-81
2021/07/15 00:12:50;;;;;;;3.27;2.73;;;;;;;;;;5057148;28;20533;-82
2021/07/15 00:15:16;;;;;;;2.90;2.70;;;;;;;;;;5057547;28;20199;-82
2021/07/15 00:17:43;;;;;;;4.40;3.13;;;;;;;;;;5056780;28;20176;-82
2021/07/15 00:20:10;;;;;;;2.83;2.63;;;;;;;;;;5057189;28;20219;-82
2021/07/15 00:22:36;;;;;;;3.27;2.97;;;;;;;;;;5056947;28;20187;-82
2021/07/15 00:25:04;;;;;;;3.17;2.67;;;;;;;;;;5057044;28;20188;-82
2021/07/15 00:27:30;;;;;;;3.43;3.13;;;;;;;;;;5056617;28;20176;-82
2021/07/15 00:29:56;;;;;;;3.30;3.00;;;;;;;;;;5056608;28;20192;-82
2021/07/15 00:32:22;;;;;;;2.97;2.67;;;;;;;;;;5056846;28;20200;-82
2021/07/15 00:34:48;;;;;;;4.83;2.80;;;;;;;;;;5056860;28;20615;-82
2021/07/15 00:37:14;;;;;;;3.10;2.80;;;;;;;;;;5056294;28;20187;-82
2021/07/15 00:39:40;;;;;;;4.40;3.23;;;;;;;;;;5056079;28;20212;-83
2021/07/15 00:42:07;;;;;;;3.57;3.27;;;;;;;;;;5056020;28;20587;-83
2021/07/15 00:44:33;;;;;;;3.33;3.03;;;;;;;;;;5056314;28;20176;-83
2021/07/15 00:46:59;;;;;;;3.00;2.80;;;;;;;;;;5056739;28;20272;-82
2021/07/15 00:49:25;;;;;;;3.00;2.73;;;;;;;;;;5056997;28;20177;-82
2021/07/15 00:51:51;;;;;;;3.83;2.87;;;;;;;;;;5056350;28;20181;-82
2021/07/15 00:54:17;;;;;;;3.40;3.10;;;;;;;;;;5074383;28;20243;-82
2021/07/15 00:56:43;;;;;;;3.90;3.47;;;;;;;;;;5073262;28;20186;-82
2021/07/15 00:59:09;;;;;;;4.00;3.60;;;;;;;;;;5056177;28;20519;-82
2021/07/15 01:01:36;;;;;;;3.70;3.40;;;;;;;;;;5056921;28;20547;-82
2021/07/15 01:04:02;;;;;;;3.43;3.13;;;;;;;;;;5056267;28;20180;-82
2021/07/15 01:06:28;;;;;;;3.77;2.60;;;;;;;;;;5055637;28;20193;-82
2021/07/15 01:08:54;;;;;;;4.13;2.93;;;;;;;;;;5055006;28;20172;-82
2021/07/15 01:11:39;;;;;;;3.80;3.17;;;;;;;;;;5074149;28;20169;-82
2021/07/15 01:14:09;;;;;;;4.37;3.10;;;;;;;;;;5074082;28;20504;-82
2021/07/15 01:16:35;;;;;;;3.83;3.50;;;;;;;;;;5055894;28;20291;-82
2021/07/15 01:19:25;;;;;;;3.80;3.50;;;;;;;;;;5055934;28;20193;-83
2021/07/15 01:22:10;;;;;;;5.13;3.43;;;;;;;;;;5073785;28;20168;-82
2021/07/15 01:24:39;;;;;;;4.27;3.87;;;;;;;;;;5073704;28;20165;-82
2021/07/15 01:27:17;;;;;;;3.73;3.43;;;;;;;;;;5055636;28;20202;-82
2021/07/15 01:29:52;;;;;;;4.90;4.40;;;;;;;;;;5073564;28;20819;-82
2021/07/15 01:32:20;;;;;;;4.63;4.23;;;;;;;;;;5055875;28;20282;-82
2021/07/15 01:34:47;;;;;;;3.67;3.37;;;;;;;;;;5055532;28;20176;-82
2021/07/15 01:37:13;;;;;;;4.33;3.43;;;;;;;;;;5072994;28;20222;-83
2021/07/15 01:39:41;;;;;;;3.83;3.53;;;;;;;;;;5055286;28;20597;-83
2021/07/15 01:42:09;;;;;;;3.70;3.40;;;;;;;;;;5073296;28;20251;-83
2021/07/15 01:44:35;;;;;;;4.33;3.83;;;;;;;;;;5073863;28;20176;-83
2021/07/15 01:47:01;;;;;;;4.73;4.33;;;;;;;;;;5055785;28;20184;-82
2021/07/15 01:49:28;;;;;;;5.80;5.20;;;;;;;;;;5055165;28;20245;-82
2021/07/15 01:51:55;;;;;;;6.93;5.53;;;;;;;;;;5055207;28;20635;-82
2021/07/15 01:54:22;;;;;;;6.10;5.47;;;;;;;;;;5073042;28;20299;-82
2021/07/15 01:56:48;;;;;;;5.00;4.50;;;;;;;;;;5055704;28;21056;-82
2021/07/15 01:59:18;;;;;;;5.33;4.43;;;;;;;;;;5055130;28;20204;-82
2021/07/15 02:01:46;;;;;;;5.07;4.57;;;;;;;;;;5054746;28;20180;-82
2021/07/15 02:04:14;;;;;;;4.90;4.40;;;;;;;;;;5055026;28;20188;-82
2021/07/15 02:06:45;;;;;;;5.53;4.90;;;;;;;;;;5054337;28;20279;-83
2021/07/15 02:09:12;;;;;;;6.13;5.07;;;;;;;;;;5072969;28;20180;-82
2021/07/15 02:11:39;;;;;;;4.90;4.30;;;;;;;;;;5054995;28;20282;-82
2021/07/15 02:14:08;;;;;;;5.07;3.93;;;;;;;;;;5054940;28;20488;-82
2021/07/15 02:16:36;;;;;;;4.60;3.63;;;;;;;;;;5054768;28;20241;-82
2021/07/15 02:19:03;;;;;;;4.83;4.37;;;;;;;;;;5053911;28;20207;-83
2021/07/15 02:21:32;;;;;;;5.03;4.10;;;;;;;;;;5071680;28;20168;-82
2021/07/15 02:23:59;;;;;;;5.97;4.53;;;;;;;;;;5053906;28;20192;-82
2021/07/15 02:26:26;;;;;;;4.60;3.83;;;;;;;;;;5054089;28;20177;-82
2021/07/15 02:28:52;;;;;;;3.60;3.20;;;;;;;;;;5053981;28;20528;-82
2021/07/15 02:31:22;;;;;;;3.97;3.57;;;;;;;;;;5053845;28;20172;-82
2021/07/15 02:33:50;;;;;;;4.20;3.67;;;;;;;;;;5071901;28;20176;-82
2021/07/15 02:36:17;;;;;;;3.60;3.30;;;;;;;;;;5053548;28;20277;-82
2021/07/15 02:38:44;;;;;;;4.03;3.67;;;;;;;;;;5053786;28;20173;-82
2021/07/15 02:41:11;;;;;;;3.60;3.30;;;;;;;;;;5054435;28;20191;-82
2021/07/15 02:43:37;;;;;;;3.57;3.27;;;;;;;;;;5053971;28;20532;-82
2021/07/15 02:46:03;;;;;;;4.13;3.63;;;;;;;;;;5053970;28;20179;-82
2021/07/15 02:48:29;;;;;;;4.30;3.90;;;;;;;;;;5054168;28;20172;-82
2021/07/15 02:50:55;;;;;;;3.80;3.40;;;;;;;;;;5053666;28;20181;-82
2021/07/15 02:53:22;;;;;;;5.30;3.90;;;;;;;;;;5053943;28;20180;-82
2021/07/15 02:55:53;;;;;;;4.30;3.90;;;;;;;;;;5053257;28;20633;-83
2021/07/15 02:58:22;;;;;;;4.93;3.63;;;;;;;;;;5053754;28;20180;-82
2021/07/15 03:00:54;;;;;;;4.27;3.23;;;;;;;;;;5054279;28;20694;-82
2021/07/15 03:03:38;;;;;;;4.00;3.60;;;;;;;;;;5054350;28;20946;-82
2021/07/15 03:06:07;;;;;;;7.23;4.60;;;;;;;;;;5053972;28;20260;-82
2021/07/15 03:08:35;;;;;;;4.40;4.00;;;;;;;;;;5054335;28;20168;-82
2021/07/15 03:11:04;;;;;;;3.97;3.57;;;;;;;;;;5063888;28;20177;-82
2021/07/15 03:13:31;;;;;;;4.50;4.10;;;;;;;;;;5067033;28;20206;-82
2021/07/15 03:15:57;;;;;;;5.17;4.27;;;;;;;;;;5067132;28;20176;-82
2021/07/15 03:18:24;;;;;;;4.57;4.07;;;;;;;;;;5067470;28;20187;-82
2021/07/15 03:20:52;;;;;;;4.03;3.43;;;;;;;;;;5067684;28;20197;-82
2021/07/15 03:23:19;;;;;;;5.00;3.23;;;;;;;;;;5069307;28;20177;-82
2021/07/15 03:25:49;;;;;;;4.07;3.40;;;;;;;;;;5068898;28;20212;-82
2021/07/15 03:28:16;;;;;;;5.13;3.90;;;;;;;;;;5087075;28;20259;-83
2021/07/15 03:30:43;;;;;;;4.37;3.83;;;;;;;;;;5068866;28;20218;-82
2021/07/15 03:33:10;;;;;;;4.40;3.87;;;;;;;;;;5067801;28;20195;-83
2021/07/15 03:35:37;;;;;;;4.07;3.63;;;;;;;;;;5063133;28;20184;-83
2021/07/15 03:38:04;;;;;;;3.93;3.33;;;;;;;;;;5062415;28;20242;-83
2021/07/15 03:40:30;;;;;;;3.77;3.30;;;;;;;;;;5062152;28;20246;-83
2021/07/15 03:42:57;;;;;;;3.53;3.23;;;;;;;;;;5062475;28;20540;-83
2021/07/15 03:45:23;;;;;;;3.70;3.40;;;;;;;;;;5061980;28;20178;-83
2021/07/15 03:47:52;;;;;;;3.75;2.88;;;;;;;;;;5061903;28;20560;-83
2021/07/15 03:50:29;;;;;;;4.30;3.27;;;;;;;;;;5062192;28;20185;-83
2021/07/15 03:52:56;;;;;;;3.33;3.00;;;;;;;;;;5061376;28;20229;-83
2021/07/15 03:55:23;;;;;;;3.63;2.70;;;;;;;;;;5061083;28;20216;-83
2021/07/15 03:57:50;;;;;;;3.67;3.33;;;;;;;;;;5061699;28;20227;-83
2021/07/15 04:00:20;;;;;;;3.90;3.17;;;;;;;;;;5060882;28;20576;-83
2021/07/15 04:02:46;;;;;;;3.40;3.07;;;;;;;;;;5061538;28;20180;-83
2021/07/15 04:05:13;;;;;;;3.50;3.17;;;;;;;;;;5061197;28;20168;-83
2021/07/15 04:07:39;;;;;;;3.57;3.27;;;;;;;;;;5078632;28;20476;-83
2021/07/15 04:10:06;;;;;;;4.70;3.93;;;;;;;;;;5060639;28;20179;-83
2021/07/15 04:12:32;;;;;;;4.07;3.50;;;;;;;;;;5078669;28;20172;-83
2021/07/15 04:14:58;;;;;;;4.53;4.13;;;;;;;;;;5060684;28;20188;-83
2021/07/15 04:17:25;;;;;;;4.70;3.97;;;;;;;;;;5060621;28;20180;-82
2021/07/15 04:19:51;;;;;;;6.00;3.70;;;;;;;;;;5061054;28;20212;-82
2021/07/15 04:22:18;;;;;;;3.77;3.37;;;;;;;;;;5060323;28;20198;-83
2021/07/15 04:24:46;;;;;;;3.70;3.17;;;;;;;;;;5078146;28;20181;-83
2021/07/15 04:27:12;;;;;;;4.40;3.60;;;;;;;;;;5059613;28;20285;-82
2021/07/15 04:29:40;;;;;;;4.63;3.43;;;;;;;;;;5077745;28;20173;-83
2021/07/15 04:32:18;;;;;;;4.03;3.53;;;;;;;;;;5059992;28;20202;-82
2021/07/15 04:34:45;;;;;;;4.57;3.67;;;;;;;;;;5060024;28;20550;-83
2021/07/15 04:37:12;;;;;;;3.77;3.47;;;;;;;;;;5077661;28;20173;-83
2021/07/15 04:39:38;;;;;;;5.07;3.13;;;;;;;;;;5059810;28;20276;-83
2021/07/15 04:42:06;;;;;;;3.27;2.97;;;;;;;;;;5059334;28;20177;-83
2021/07/15 04:44:33;;;;;;;2.70;2.50;;;;;;;;;;5059094;28;20557;-83
2021/07/15 04:47:01;;;;;;;4.87;2.87;;;;;;;;;;5059361;28;20180;-82
2021/07/15 04:49:27;;;;;;;2.97;2.70;;;;;;;;;;5058887;28;20182;-82
2021/07/15 04:51:54;;;;;;;4.27;2.57;;;;;;;;;;5058522;28;20190;-82
2021/07/15 04:54:21;;;;;;;5.13;3.37;;;;;;;;;;5077318;28;20224;-82
2021/07/15 04:56:47;;;;;;;2.90;2.60;;;;;;;;;;5059044;28;20185;-83
2021/07/15 04:59:14;;;;;;;2.50;2.23;;;;;;;;;;5058614;28;20223;-83
2021/07/15 05:01:40;;;;;;;3.13;2.40;;;;;;;;;;5058558;28;20218;-83
2021/07/15 05:04:06;;;;;;;2.73;2.53;;;;;;;;;;5058569;28;20546;-82
2021/07/15 05:06:32;;;;;;;3.20;2.27;;;;;;;;;;5058174;28;20246;-83
2021/07/15 05:08:58;;;;;;;2.30;2.10;;;;;;;;;;5058460;28;20172;-82
2021/07/15 05:11:24;;;;;;;2.17;1.90;;;;;;;;;;5058872;28;20176;-81
2021/07/15 05:13:50;;;;;;;1.90;1.80;;;;;;;;;;5062011;28;20641;-78
2021/07/15 05:16:16;;;;;;;1.90;1.70;;;;;;;;;;5061861;28;20217;-79
2021/07/15 05:18:43;;;;;;;2.50;2.30;;;;;;;;;;5062113;28;20177;-79
2021/07/15 05:21:10;;;;;;;2.07;1.87;;;;;;;;;;5079972;28;20226;-79
2021/07/15 05:23:36;;;;;;;3.63;1.90;;;;;;;;;;5078983;28;20184;-79
2021/07/15 05:26:02;;;;;;;2.20;2.00;;;;;;;;;;5080065;28;20612;-79
2021/07/15 05:28:28;;;;;;;2.83;1.93;;;;;;;;;;5080165;28;20176;-78
2021/07/15 05:30:54;;;;;;;1.77;1.67;;;;;;;;;;5079461;28;20176;-79
2021/07/15 05:33:21;;;;;;;1.70;1.60;;;;;;;;;;5078944;28;20642;-80
2021/07/15 05:35:47;;;;;;;5.73;2.07;;;;;;;;;;5057139;28;20644;-79
2021/07/15 05:38:13;;;;;;;2.03;1.80;;;;;;;;;;5057297;28;20184;-79
2021/07/15 05:40:39;;;;;;;2.90;1.87;;;;;;;;;;5075613;28;20192;-79
2021/07/15 05:43:05;;;;;;;2.07;1.70;;;;;;;;;;5075297;28;20191;-78
2021/07/15 05:45:32;;;;;;;2.83;1.50;;;;;;;;;;5057088;28;20520;-78
2021/07/15 05:47:58;;;;;;;1.97;1.77;;;;;;;;;;5056875;28;20181;-79
2021/07/15 05:50:24;;;;;;;3.67;1.60;;;;;;;;;;5074806;28;20176;-79
2021/07/15 05:52:50;;;;;;;1.80;1.70;;;;;;;;;;5074871;28;20675;-79
2021/07/15 05:55:16;;;;;;;2.03;1.90;;;;;;;;;;5057293;28;20224;-79
2021/07/15 05:57:42;;;;;;;2.58;1.90;;;;;;;;;;5057192;28;20893;-79
2021/07/15 06:00:10;;;;;;;1.60;1.50;;;;;;;;;;5058730;28;20242;-79
2021/07/15 06:02:36;;;;;;;1.73;1.63;;;;;;;;;;5058464;28;20172;-78
2021/07/15 06:05:02;;;;;;;2.87;1.63;;;;;;;;;;5058657;28;20236;-79
2021/07/15 06:07:28;;;;;;;1.80;1.70;;;;;;;;;;5077278;28;20196;-78
2021/07/15 06:09:54;;;;;;;3.00;1.70;;;;;;;;;;5058729;28;20168;-79
2021/07/15 06:12:20;;;;;;;1.87;1.57;;;;;;;;;;5057557;28;20173;-79
2021/07/15 06:14:46;;;;;;;1.60;1.50;;;;;;;;;;5058365;28;20654;-79
2021/07/15 06:17:12;;;;;;;1.93;1.80;;;;;;;;;;5058661;28;20185;-79
2021/07/15 06:19:39;;;;;;;1.67;1.57;;;;;;;;;;5059362;28;20762;-79
2021/07/15 06:22:05;;;;;;;3.13;1.57;;;;;;;;;;5058826;28;20183;-79
2021/07/15 06:24:31;;;;;;;1.97;1.67;;;;;;;;;;5060229;28;20184;-79
2021/07/15 06:26:57;;;;;;;1.83;1.70;;;;;;;;;;5059946;28;20173;-79
2021/07/15 06:29:24;;;;;;;1.80;1.70;;;;;;;;;;5059138;28;20286;-78
2021/07/15 06:31:50;;;;;;;1.90;1.80;;;;;;;;;;5059426;28;20267;-79
2021/07/15 06:34:16;;;;;;;1.97;1.80;;;;;;;;;;5060760;28;20282;-78
2021/07/15 06:36:46;;;;;;;2.15;1.95;;;;;;;;;;5060996;28;20417;-80
2021/07/15 06:39:13;;;;;;;2.23;1.83;;;;;;;;;;5064345;28;20226;-80
2021/07/15 06:41:39;;;;;;;2.23;1.70;;;;;;;;;;5065265;28;20173;-80
2021/07/15 06:44:06;;;;;;;1.97;1.87;;;;;;;;;;5082776;28;20218;-79
2021/07/15 06:46:33;;;;;;;2.13;1.93;;;;;;;;;;5064021;28;20206;-79
2021/07/15 06:48:59;;;;;;;2.17;1.97;;;;;;;;;;5064733;28;20179;-80
2021/07/15 06:51:26;;;;;;;2.53;2.10;;;;;;;;;;5063749;28;20177;-80
2021/07/15 06:53:52;;;;;;;3.87;2.33;;;;;;;;;;5065936;28;20235;-79
2021/07/15 06:56:18;;;;;;;3.07;2.73;;;;;;;;;;5091108;28;20521;-80
2021/07/15 06:58:44;;;;;;;2.87;2.60;;;;;;;;;;5078954;28;20222;-80
2021/07/15 07:01:10;;;;;;;4.17;3.17;;;;;;;;;;5084310;28;20196;-80
2021/07/15 07:03:36;;;;;;;3.00;2.80;;;;;;;;;;5079223;28;20191;-79
2021/07/15 07:06:03;;;;;;;3.80;3.40;;;;;;;;;;5065450;28;20173;-80
2021/07/15 07:08:29;;;;;;;3.67;3.13;;;;;;;;;;5086635;28;20160;-79
2021/07/15 07:10:55;;;;;;;3.70;3.40;;;;;;;;;;5086842;28;20184;-80
2021/07/15 07:13:21;;;;;;;4.10;3.67;;;;;;;;;;5086192;28;20199;-79
2021/07/15 07:15:47;;;;;;;5.67;3.83;;;;;;;;;;5086689;28;20275;-80
2021/07/15 07:18:13;;;;;;;5.20;4.70;;;;;;;;;;5086741;28;20176;-80
2021/07/15 07:20:40;;;;;;;5.30;4.80;;;;;;;;;;5086644;28;20294;-79
2021/07/15 07:23:06;;;;;;;4.70;4.30;;;;;;;;;;5067338;28;20210;-79
2021/07/15 07:25:32;;;;;;;6.17;5.07;;;;;;;;;;5068153;28;20177;-79
2021/07/15 07:27:58;;;;;;;6.53;4.60;;;;;;;;;;5086465;28;20177;-79
2021/07/15 07:30:24;;;;;;;5.53;4.60;;;;;;;;;;5068092;28;20180;-79
2021/07/15 07:32:50;;;;;;;5.03;4.53;;;;;;;;;;5065256;28;20187;-79
2021/07/15 07:35:17;;;;;;;5.50;4.87;;;;;;;;;;5079656;28;20176;-78
2021/07/15 07:37:43;;;;;;;6.23;5.30;;;;;;;;;;5079274;28;20176;-79
2021/07/15 07:40:10;;;;;;;5.77;4.63;;;;;;;;;;5079918;28;20204;-79
2021/07/15 07:42:37;;;;;;;10.33;8.53;;;;;;;;;;5058358;28;20168;-77
2021/07/15 07:45:04;;;;;;;9.33;7.03;;;;;;;;;;5078117;28;20181;-78
2021/07/15 07:47:30;;;;;;;10.07;7.70;;;;;;;;;;5060183;28;20180;-78
2021/07/15 07:49:56;;;;;;;8.87;8.03;;;;;;;;;;5079199;28;20172;-78
2021/07/15 07:52:22;;;;;;;10.57;8.13;;;;;;;;;;5070147;28;20635;-78
2021/07/15 07:54:48;;;;;;;9.93;7.80;;;;;;;;;;5071627;28;20216;-78
2021/07/15 07:57:14;;;;;;;9.33;7.27;;;;;;;;;;5079254;28;20173;-79
2021/07/15 07:59:40;;;;;;;9.93;7.93;;;;;;;;;;5080564;28;20199;-79
2021/07/15 08:02:06;;;;;;;8.30;6.87;;;;;;;;;;5082060;28;20230;-78
2021/07/15 08:04:33;;;;;;;9.80;8.03;;;;;;;;;;5081487;28;20184;-78
2021/07/15 08:06:59;;;;;;;8.20;7.07;;;;;;;;;;5080111;28;20195;-78
2021/07/15 08:09:27;;;;;;;12.00;7.60;;;;;;;;;;5080779;28;20616;-79
2021/07/15 08:11:55;;;;;;;7.93;7.23;;;;;;;;;;5079884;28;20172;-78
2021/07/15 08:14:22;;;;;;;9.20;6.80;;;;;;;;;;5079774;28;20176;-78
2021/07/15 08:16:49;;;;;;;8.13;6.63;;;;;;;;;;5080375;28;20168;-78
2021/07/15 08:19:15;;;;;;;7.30;6.53;;;;;;;;;;5080329;28;20649;-79
2021/07/15 08:21:41;;;;;;;7.23;6.53;;;;;;;;;;5079527;28;20169;-79
2021/07/15 08:24:07;;;;;;;7.77;6.70;;;;;;;;;;5078887;28;20314;-79
2021/07/15 08:26:33;;;;;;;9.03;7.83;;;;;;;;;;5079330;28;20632;-78
2021/07/15 08:28:59;;;;;;;7.67;6.67;;;;;;;;;;5081436;28;20601;-78
2021/07/15 08:31:26;;;;;;;9.07;6.57;;;;;;;;;;5080641;28;20177;-79
2021/07/15 08:33:52;;;;;;;8.97;7.47;;;;;;;;;;5081379;28;20172;-79
2021/07/15 08:36:19;;;;;;;8.47;7.00;;;;;;;;;;5080719;28;20165;-79
2021/07/15 08:38:45;;;;;;;7.73;6.80;;;;;;;;;;5078766;28;20172;-78
2021/07/15 08:41:11;;;;;;;8.25;7.35;;;;;;;;;;5080247;28;20434;-78
2021/07/15 08:43:38;;;;;;;8.60;6.90;;;;;;;;;;5077540;28;20231;-78
2021/07/15 08:46:05;;;;;;;10.60;7.07;;;;;;;;;;5078786;28;20169;-78
2021/07/15 08:48:32;;;;;;;13.23;10.67;;;;;;;;;;5076941;28;20279;-78
2021/07/15 08:50:59;;;;;;;10.77;9.37;;;;;;;;;;5078915;28;20194;-79
2021/07/15 08:53:27;;;;;;;10.27;8.00;;;;;;;;;;5082868;28;20648;-79
2021/07/15 08:58:38;;;;;;;8.00;7.20;;;;;;;;;;5082459;28;20169;-79
2021/07/15 09:01:04;;;;;;;14.43;7.17;;;;;;;;;;5081376;28;20209;-79
2021/07/15 09:03:32;;;;;;;10.90;7.73;;;;;;;;;;5082697;28;20168;-79
2021/07/15 09:05:59;;;;;;;10.33;7.83;;;;;;;;;;5082438;28;20164;-79
2021/07/15 09:08:25;;;;;;;12.77;10.17;;;;;;;;;;5080250;28;20172;-79
2021/07/15 09:10:51;;;;;;;11.13;8.43;;;;;;;;;;5081823;28;20520;-78
2021/07/15 09:13:17;;;;;;;10.83;8.57;;;;;;;;;;5074854;28;20573;-79
2021/07/15 09:15:47;;;;;;;11.57;8.10;;;;;;;;;;5079571;28;20518;-79
2021/07/15 09:18:13;;;;;;;14.97;9.87;;;;;;;;;;5077648;28;20195;-79
2021/07/15 09:20:39;;;;;;;12.57;7.53;;;;;;;;;;5078264;28;20719;-79
2021/07/15 09:23:07;;;;;;;10.17;7.93;;;;;;;;;;5079726;28;20791;-79
2021/07/15 09:25:39;;;;;;;10.20;7.57;;;;;;;;;;5077218;28;20241;-79
2021/07/15 09:28:15;;;;;;;11.77;7.97;;;;;;;;;;5079146;28;20219;-79
2021/07/15 09:30:42;;;;;;;11.17;8.07;;;;;;;;;;5077072;28;20246;-79
2021/07/15 09:33:10;;;;;;;12.30;7.77;;;;;;;;;;5077233;28;20180;-79
2021/07/15 09:35:40;;;;;;;16.10;8.83;;;;;;;;;;5076564;28;20177;-78
2021/07/15 09:38:26;;;;;;;13.57;8.07;;;;;;;;;;5078931;28;20520;-79
2021/07/15 09:40:57;;;;;;;12.90;8.93;;;;;;;;;;5078371;28;20200;-79
2021/07/15 09:43:27;;;;;;;9.23;8.10;;;;;;;;;;5078171;28;20246;-79
2021/07/15 09:45:54;;;;;;;11.27;8.80;;;;;;;;;;5079087;28;20681;-79
2021/07/15 09:48:25;;;;;;;11.33;8.80;;;;;;;;;;5079344;28;20175;-79
2021/07/15 09:50:55;;;;;;;11.30;7.57;;;;;;;;;;5077380;28;20206;-79
2021/07/15 09:53:25;;;;;;;14.07;8.47;;;;;;;;;;5079181;28;20173;-79
2021/07/15 09:56:08;;;;;;;8.87;7.43;;;;;;;;;;5076697;28;20759;-80
2021/07/15 09:58:45;;;;;;;9.60;8.03;;;;;;;;;;5077660;28;20180;-79
2021/07/15 10:01:13;;;;;;;8.87;7.97;;;;;;;;;;5077730;28;20202;-79
2021/07/15 10:03:46;;;;;;;11.63;8.03;;;;;;;;;;5077382;28;20176;-80
2021/07/15 10:06:13;;;;;;;9.03;8.13;;;;;;;;;;5077523;28;20542;-79
2021/07/15 10:08:40;;;;;;;9.87;8.97;;;;;;;;;;5078247;28;20509;-79
2021/07/15 10:11:14;;;;;;;10.43;9.40;;;;;;;;;;5079703;28;20171;-79
2021/07/15 10:13:40;;;;;;;9.93;8.70;;;;;;;;;;5078980;28;20169;-79
2021/07/15 10:16:07;;;;;;;10.10;8.60;;;;;;;;;;5077970;28;20188;-79
2021/07/15 10:18:35;;;;;;;10.20;8.13;;;;;;;;;;5080091;28;20181;-79
2021/07/15 10:21:01;;;;;;;8.83;7.97;;;;;;;;;;5077854;28;20230;-79
2021/07/15 10:23:49;;;;;;;10.50;9.33;;;;;;;;;;5078784;28;20177;-79
2021/07/15 10:26:16;;;;;;;9.63;8.30;;;;;;;;;;5080557;28;20153;-79
2021/07/15 10:28:46;;;;;;;9.00;8.10;;;;;;;;;;5079668;28;20165;-79
2021/07/15 10:31:13;;;;;;;9.03;8.13;;;;;;;;;;5078378;28;20184;-79
2021/07/15 10:33:39;;;;;;;9.87;8.90;;;;;;;;;;5078969;28;20177;-79
2021/07/15 10:36:06;;;;;;;9.67;8.77;;;;;;;;;;5077874;28;20177;-79
2021/07/15 10:38:40;;;;;;;10.00;9.00;;;;;;;;;;5078442;28;20183;-79
2021/07/15 10:41:07;;;;;;;9.03;8.23;;;;;;;;;;5077243;28;20208;-79
2021/07/15 10:43:33;;;;;;;9.73;8.77;;;;;;;;;;5078177;28;20173;-79
2021/07/15 10:46:02;;;;;;;10.10;9.10;;;;;;;;;;5079419;28;20650;-79
2021/07/15 10:48:28;;;;;;;8.50;7.80;;;;;;;;;;5078017;28;20188;-80
2021/07/15 10:50:54;;;;;;;9.07;7.77;;;;;;;;;;5076124;28;20204;-78
2021/07/15 10:53:21;;;;;;;8.27;7.37;;;;;;;;;;5076600;28;20602;-79
2021/07/15 10:55:47;;;;;;;9.50;8.27;;;;;;;;;;5075233;28;20243;-78
2021/07/15 10:58:13;;;;;;;10.77;8.33;;;;;;;;;;5076499;28;20254;-78
2021/07/15 11:00:51;;;;;;;9.07;8.17;;;;;;;;;;5076917;28;20204;-78
2021/07/15 11:03:25;;;;;;;10.00;8.97;;;;;;;;;;5077124;28;20164;-79
2021/07/15 11:05:55;;;;;;;9.50;8.50;;;;;;;;;;5075831;28;20169;-78
2021/07/15 11:08:40;;;;;;;11.75;10.55;;;;;;;;;;5076413;28;20497;-80
2021/07/15 11:11:06;;;;;;;11.50;10.20;;;;;;;;;;5074109;28;20172;-78
2021/07/15 11:13:33;;;;;;;15.23;11.20;;;;;;;;;;5077474;28;20173;-78
2021/07/15 11:16:03;;;;;;;12.90;11.70;;;;;;;;;;5075570;28;20188;-80
2021/07/15 11:19:00;;;;;;;11.50;10.30;;;;;;;;;;5073612;28;20184;-80
2021/07/15 11:21:26;;;;;;;12.07;10.70;;;;;;;;;;5076798;28;20219;-80
2021/07/15 11:24:12;;;;;;;13.13;11.73;;;;;;;;;;5074494;28;20184;-77
2021/07/15 11:26:41;;;;;;;13.40;12.00;;;;;;;;;;5075656;28;20269;-78
2021/07/15 11:29:07;;;;;;;13.40;11.17;;;;;;;;;;5077408;28;20168;-78
2021/07/15 11:31:43;;;;;;;11.53;10.47;;;;;;;;;;5076720;28;20176;-78
2021/07/15 11:34:10;;;;;;;11.60;10.40;;;;;;;;;;5075955;28;20190;-80
2021/07/15 11:36:36;;;;;;;14.47;10.90;;;;;;;;;;5075319;28;20174;-78
2021/07/15 11:39:05;;;;;;;15.00;11.53;;;;;;;;;;5077689;28;20165;-78
2021/07/15 11:41:43;;;;;;;12.40;10.23;;;;;;;;;;5078881;28;20176;-78
2021/07/15 11:44:09;;;;;;;13.50;11.83;;;;;;;;;;5077907;28;20171;-79
2021/07/15 11:46:36;;;;;;;12.47;10.60;;;;;;;;;;5077929;28;20190;-78
2021/07/15 11:49:12;;;;;;;15.97;11.40;;;;;;;;;;5078351;28;20171;-79
2021/07/15 11:51:38;;;;;;;14.33;11.07;;;;;;;;;;5078686;28;20165;-79
2021/07/15 11:54:14;;;;;;;14.23;11.70;;;;;;;;;;5083748;28;20217;-78
2021/07/15 11:56:41;;;;;;;16.13;13.00;;;;;;;;;;5064955;28;20236;-78
2021/07/15 11:59:07;;;;;;;16.83;12.73;;;;;;;;;;5065744;28;20647;-78
2021/07/15 12:01:34;;;;;;;15.47;12.43;;;;;;;;;;5065642;28;20172;-77
2021/07/15 12:04:00;;;;;;;16.93;13.63;;;;;;;;;;5084308;28;20329;-78
2021/07/15 12:06:27;;;;;;;19.23;13.70;;;;;;;;;;5083715;28;20196;-79
2021/07/15 12:08:53;;;;;;;20.47;13.27;;;;;;;;;;5065627;28;20176;-78
2021/07/15 12:11:22;;;;;;;17.53;13.07;;;;;;;;;;5065630;28;20180;-79
2021/07/15 12:13:52;;;;;;;18.25;14.57;;;;;;;;;;5082557;28;20406;-78
2021/07/15 12:16:22;;;;;;;18.17;15.37;;;;;;;;;;5065816;28;20183;-78
2021/07/15 12:18:50;;;;;;;18.63;13.80;;;;;;;;;;5065402;28;20176;-81
2021/07/15 12:21:18;;;;;;;14.93;13.23;;;;;;;;;;5064302;28;20207;-79
2021/07/15 12:23:44;;;;;;;15.43;13.17;;;;;;;;;;5065093;28;20178;-79
2021/07/15 12:26:12;;;;;;;16.50;13.73;;;;;;;;;;5065027;28;20179;-79
2021/07/15 12:28:43;;;;;;;17.80;13.47;;;;;;;;;;5083391;28;20175;-79
2021/07/15 12:31:10;;;;;;;16.47;13.17;;;;;;;;;;5084027;28;20290;-79
2021/07/15 12:33:41;;;;;;;16.03;13.17;;;;;;;;;;5065367;28;20209;-79
2021/07/15 12:36:13;;;;;;;17.30;12.63;;;;;;;;;;5064414;28;20176;-78
2021/07/15 12:38:40;;;;;;;15.80;12.97;;;;;;;;;;5082987;28;20222;-80
2021/07/15 12:41:06;;;;;;;15.07;13.43;;;;;;;;;;5064630;28;20311;-78
2021/07/15 12:43:42;;;;;;;15.20;12.73;;;;;;;;;;5064395;28;20181;-79
2021/07/15 12:46:13;;;;;;;15.40;12.97;;;;;;;;;;5063667;28;20173;-78
2021/07/15 12:48:43;;;;;;;14.73;13.03;;;;;;;;;;5063778;28;20173;-79
2021/07/15 12:51:10;;;;;;;15.00;11.90;;;;;;;;;;5063553;28;20176;-78
2021/07/15 12:53:43;;;;;;;14.93;13.33;;;;;;;;;;5063195;28;20246;-78
2021/07/15 12:56:10;;;;;;;17.13;13.80;;;;;;;;;;5064242;28;20672;-79
2021/07/15 12:58:36;;;;;;;16.20;13.13;;;;;;;;;;5081342;28;20214;-79
2021/07/15 13:01:06;;;;;;;15.30;13.53;;;;;;;;;;5082519;28;20728;-78
2021/07/15 13:03:32;;;;;;;18.07;14.47;;;;;;;;;;5062967;28;20189;-77
2021/07/15 13:05:59;;;;;;;14.63;13.03;;;;;;;;;;5079426;28;20200;-80
2021/07/15 13:08:34;;;;;;;15.40;12.73;;;;;;;;;;5081170;28;20185;-80
2021/07/15 13:16:18;;;;;;;14.80;12.50;;;;;;;;;;5079533;28;20172;-80
2021/07/15 13:18:44;;;;;;;14.30;12.30;;;;;;;;;;5063084;28;20201;-80
2021/07/15 13:21:10;;;;;;;16.70;12.03;;;;;;;;;;5063025;28;20218;-80
2021/07/15 13:23:40;;;;;;;14.47;12.47;;;;;;;;;;5082373;28;20526;-80
2021/07/15 13:26:13;;;;;;;17.53;14.33;;;;;;;;;;5063652;28;20280;-80
2021/07/15 13:28:39;;;;;;;15.93;12.73;;;;;;;;;;5081316;28;20205;-80
2021/07/15 13:31:13;;;;;;;17.27;14.07;;;;;;;;;;5063754;28;20193;-80
2021/07/15 13:33:44;;;;;;;13.90;12.43;;;;;;;;;;5063548;28;20202;-80
2021/07/15 13:36:10;;;;;;;13.53;12.00;;;;;;;;;;5063465;28;20174;-80
2021/07/15 13:38:40;;;;;;;13.60;12.13;;;;;;;;;;5082101;28;20172;-80
2021/07/15 13:41:21;;;;;;;14.87;13.27;;;;;;;;;;5063798;28;20744;-79
2021/07/15 13:43:47;;;;;;;13.67;12.10;;;;;;;;;;5081638;28;20154;-79
2021/07/15 13:46:17;;;;;;;13.97;11.63;;;;;;;;;;5063598;28;20232;-80
2021/07/15 13:48:46;;;;;;;14.23;12.33;;;;;;;;;;5063338;28;20183;-79
2021/07/15 13:51:12;;;;;;;14.30;12.07;;;;;;;;;;5062243;28;20178;-80
2021/07/15 13:53:42;;;;;;;12.67;10.57;;;;;;;;;;5080730;28;20177;-80
2021/07/15 13:56:09;;;;;;;10.83;8.67;;;;;;;;;;5080480;28;20190;-80
2021/07/15 13:58:35;;;;;;;9.60;8.70;;;;;;;;;;5061982;28;20241;-80
2021/07/15 14:01:02;;;;;;;9.87;7.53;;;;;;;;;;5061484;28;20611;-80
2021/07/15 14:03:28;;;;;;;11.13;8.43;;;;;;;;;;5078927;28;20174;-80
2021/07/15 14:05:55;;;;;;;9.00;7.53;;;;;;;;;;5078783;28;20239;-80
2021/07/15 14:08:22;;;;;;;7.67;6.87;;;;;;;;;;5060983;28;20175;-80
2021/07/15 14:10:48;;;;;;;7.80;7.00;;;;;;;;;;5077933;28;20177;-79
2021/07/15 14:13:15;;;;;;;8.02;7.22;;;;;;;;;;5060544;28;20410;-80
2021/07/15 14:15:42;;;;;;;6.40;5.80;;;;;;;;;;5078941;28;20173;-80
2021/07/15 14:18:09;;;;;;;6.37;5.73;;;;;;;;;;5060407;28;20176;-80
2021/07/15 14:20:37;;;;;;;6.20;5.63;;;;;;;;;;5061432;28;20206;-80
2021/07/15 14:23:03;;;;;;;5.83;5.33;;;;;;;;;;5061228;28;20190;-80
2021/07/15 14:25:29;;;;;;;7.03;5.53;;;;;;;;;;5077667;28;20180;-78
2021/07/15 14:27:56;;;;;;;6.10;5.50;;;;;;;;;;5077396;28;20173;-78
2021/07/15 14:30:24;;;;;;;8.80;6.23;;;;;;;;;;5060620;28;20179;-78
2021/07/15 14:32:50;;;;;;;7.60;6.80;;;;;;;;;;5060389;28;20649;-79
2021/07/15 14:35:16;;;;;;;6.30;5.70;;;;;;;;;;5060835;28;20172;-78
2021/07/15 14:37:43;;;;;;;10.63;5.60;;;;;;;;;;5060600;28;20173;-81
2021/07/15 14:40:09;;;;;;;6.37;5.77;;;;;;;;;;5061179;28;20200;-79
2021/07/15 14:42:36;;;;;;;8.97;7.13;;;;;;;;;;5079465;28;20181;-79
2021/07/15 14:45:02;;;;;;;7.33;6.60;;;;;;;;;;5079916;28;20207;-81
2021/07/15 14:47:28;;;;;;;7.27;6.57;;;;;;;;;;5077493;28;20176;-81